Time;durP1;ratioP1;P1;durP2;ratioP2;P2;SDS_P1;SDS_P2;PMS_P1;PMS_P2;Temp;Humidity;BMP_temperature;BMP_pressure;BME280_temperature;BME280_humidity;BME280_pressure;Samples;Min_cycle;Max_cycle;Signal;HPM_P1;HPM_P2
2023/08/21 00:00:52;;;;;;;0.30;0.30;;;30.00;59.90;;;30.84;43.50;95542.47;5014288;28;20518;-30
2023/08/21 00:03:21;;;;;;;0.30;0.30;;;30.00;60.00;;;30.82;43.17;95548.16;5015041;28;20198;-30
2023/08/21 00:05:49;;;;;;;0.30;0.30;;;30.00;59.90;;;30.82;43.85;95540.03;5015032;28;20208;-32
2023/08/21 00:08:16;;;;;;;0.30;0.30;;;30.00;60.00;;;30.81;43.40;95535.75;5015107;28;20580;-30
2023/08/21 00:10:43;;;;;;;0.20;0.20;;;30.00;60.00;;;30.79;43.96;95536.03;5015377;28;20251;-33
2023/08/21 00:13:10;;;;;;;0.32;0.32;;;30.00;60.00;;;30.79;43.52;95536.03;5015192;28;20212;-31
2023/08/21 00:15:40;;;;;;;0.22;0.22;;;30.00;60.00;;;30.79;43.53;95533.31;5014936;28;20248;-30
2023/08/21 00:18:07;;;;;;;0.20;0.20;;;30.00;60.00;;;30.79;43.33;95535.25;5014633;28;20545;-30
2023/08/21 00:20:34;;;;;;;0.35;0.35;;;30.00;60.00;;;30.78;43.53;95530.94;5015411;28;20205;-31
2023/08/21 00:23:02;;;;;;;0.30;0.30;;;30.00;60.00;;;30.78;43.92;95528.22;5014786;28;20205;-29
2023/08/21 00:25:29;;;;;;;0.30;0.30;;;29.90;60.00;;;30.76;43.30;95520.41;5015370;28;20196;-30
2023/08/21 00:27:56;;;;;;;0.40;0.40;;;29.90;60.00;;;30.76;43.57;95525.00;5014693;28;20281;-31
2023/08/21 00:30:23;;;;;;;0.30;0.30;;;29.90;60.00;;;30.75;43.36;95529.63;5013522;28;20239;-29
2023/08/21 00:32:50;;;;;;;0.38;0.38;;;30.00;60.10;;;30.75;43.95;95528.81;5014656;28;20283;-29
2023/08/21 00:35:19;;;;;;;0.40;0.40;;;30.00;60.10;;;30.73;43.59;95531.84;5013652;28;20647;-30
2023/08/21 00:37:46;;;;;;;0.32;0.32;;;29.90;60.10;;;30.73;43.34;95529.13;5013635;28;20258;-31
2023/08/21 00:40:14;;;;;;;0.40;0.40;;;29.90;60.10;;;30.72;43.30;95532.94;5014361;28;20246;-30
2023/08/21 00:42:41;;;;;;;0.30;0.30;;;29.90;60.20;;;30.72;43.89;95534.88;5014716;28;20533;-29
2023/08/21 00:45:09;;;;;;;0.20;0.20;;;29.90;60.10;;;30.71;43.47;95528.63;5013541;28;20644;-32
2023/08/21 00:47:36;;;;;;;0.30;0.30;;;29.90;60.20;;;30.69;43.76;95528.16;5014671;28;20628;-32
2023/08/21 00:50:06;;;;;;;0.40;0.40;;;29.90;60.20;;;30.68;43.98;95531.97;5014289;28;20217;-33
2023/08/21 00:52:35;;;;;;;0.30;0.30;;;29.80;60.10;;;30.67;43.82;95527.66;5029921;28;20231;-31
2023/08/21 00:55:03;;;;;;;0.20;0.20;;;29.90;60.20;;;30.66;44.11;95523.34;4997505;28;20212;-31
2023/08/21 00:57:32;;;;;;;0.30;0.30;;;29.80;60.20;;;30.65;44.09;95519.03;4997731;28;20193;-32
2023/08/21 01:00:01;;;;;;;0.30;0.30;;;29.90;60.30;;;30.64;43.44;95523.66;5012756;28;20273;-32
2023/08/21 01:02:28;;;;;;;0.30;0.30;;;29.80;60.20;;;30.64;43.70;95525.56;5013259;28;20209;-33
2023/08/21 01:04:55;;;;;;;0.30;0.30;;;29.90;60.30;;;30.63;44.14;95530.16;5014022;28;20212;-32
2023/08/21 01:07:22;;;;;;;0.20;0.20;;;29.80;60.20;;;30.62;44.32;95528.56;5013274;28;20655;-32
2023/08/21 01:10:03;;;;;;;0.30;0.30;;;29.80;61.10;;;30.59;44.16;95531.91;5014117;28;20267;-33
2023/08/21 01:12:50;;;;;;;0.20;0.20;;;29.80;60.30;;;30.57;43.76;95527.91;4996913;28;20202;-31
2023/08/21 01:15:18;;;;;;;0.30;0.30;;;29.80;60.20;;;30.57;43.77;95531.41;5029299;28;20244;-32
2023/08/21 01:17:47;;;;;;;0.30;0.30;;;29.80;60.20;;;30.57;44.43;95533.31;5014111;28;20263;-30
2023/08/21 01:20:16;;;;;;;0.22;0.22;;;29.80;60.30;;;30.54;43.97;95526.59;5013082;28;20193;-30
2023/08/21 01:22:45;;;;;;;0.30;0.30;;;29.80;60.30;;;30.54;43.73;95526.59;5013092;28;20216;-29
2023/08/21 01:25:15;;;;;;;0.28;0.28;;;29.80;60.20;;;30.55;44.33;95530.09;5012913;28;20225;-32
2023/08/21 01:27:48;;;;;;;0.30;0.30;;;29.80;60.20;;;30.52;44.46;95528.81;5013244;28;20611;-33
2023/08/21 01:30:17;;;;;;;0.30;0.30;;;29.80;60.30;;;30.53;44.30;95529.59;5012920;28;20211;-31
2023/08/21 01:33:10;;;;;;;0.20;0.20;;;29.80;60.40;;;30.49;44.42;95534.78;5013213;28;20193;-31
2023/08/21 01:35:38;;;;;;;0.30;0.30;;;29.80;60.40;;;30.49;44.15;95526.66;5013490;28;20192;-31
2023/08/21 01:38:06;;;;;;;0.30;0.30;;;29.80;60.40;;;30.48;44.06;95528.59;5012770;28;20655;-30
2023/08/21 01:40:33;;;;;;;0.40;0.40;;;29.70;60.30;;;30.49;44.24;95532.09;5013457;28;20226;-32
2023/08/21 01:42:59;;;;;;;0.20;0.20;;;29.70;60.40;;;30.47;43.99;95529.69;5013717;28;20524;-32
2023/08/21 01:45:27;;;;;;;0.30;0.30;;;29.70;60.30;;;30.47;44.40;95524.28;5013599;28;20631;-32
2023/08/21 01:47:54;;;;;;;0.28;0.28;;;29.70;60.30;;;30.46;44.33;95519.97;5012611;28;20207;-31
2023/08/21 01:50:21;;;;;;;0.28;0.28;;;29.70;60.30;;;30.45;44.01;95521.06;5013985;28;20301;-31
2023/08/21 01:52:48;;;;;;;0.32;0.32;;;29.70;60.30;;;30.45;43.96;95522.97;5012700;28;20215;-32
2023/08/21 01:55:15;;;;;;;0.32;0.32;;;29.70;60.40;;;30.43;44.60;95514.34;5013920;28;20571;-32
2023/08/21 01:57:42;;;;;;;0.30;0.30;;;29.70;60.40;;;30.43;44.27;95526.00;5013845;28;20652;-33
2023/08/21 02:00:10;;;;;;;0.30;0.30;;;29.70;60.30;;;30.43;44.09;95528.69;5012265;28;20204;-32
2023/08/21 02:02:40;;;;;;;0.20;0.20;;;29.70;60.30;;;30.42;44.03;95527.09;5013660;28;20706;-31
2023/08/21 02:05:08;;;;;;;0.30;0.30;;;29.70;60.30;;;30.42;43.98;95526.28;5013339;28;20204;-30
2023/08/21 02:07:35;;;;;;;0.30;0.30;;;29.70;60.40;;;30.40;44.50;95523.88;5013247;28;20193;-31
2023/08/21 02:10:03;;;;;;;0.35;0.35;;;29.60;60.40;;;30.40;44.08;95523.09;5011871;28;20601;-32
2023/08/21 02:12:32;;;;;;;0.40;0.40;;;29.60;60.40;;;30.39;44.16;95524.19;5012836;28;20191;-30
2023/08/21 02:15:01;;;;;;;0.30;0.30;;;29.70;60.40;;;30.38;44.17;95528.00;5013383;28;20191;-31
2023/08/21 02:17:32;;;;;;;0.30;0.30;;;29.60;60.50;;;30.38;44.60;95523.38;5012151;28;20290;-32
2023/08/21 02:19:59;;;;;;;0.28;0.28;;;29.70;60.50;;;30.37;44.34;95521.81;5012862;28;20203;-30
2023/08/21 02:22:27;;;;;;;0.40;0.40;;;29.60;60.50;;;30.35;44.28;95519.38;5012030;28;20226;-32
2023/08/21 02:24:54;;;;;;;0.30;0.30;;;29.60;60.50;;;30.36;44.23;95520.19;5012044;28;20212;-30
2023/08/21 02:27:21;;;;;;;0.25;0.25;;;29.60;60.50;;;30.35;44.18;95529.41;5013180;28;20519;-30
2023/08/21 02:29:49;;;;;;;0.30;0.30;;;29.60;60.50;;;30.34;44.45;95527.81;5012672;28;20209;-31
2023/08/21 02:32:16;;;;;;;0.20;0.20;;;29.60;60.50;;;30.33;44.04;95526.19;5028504;28;20257;-30
2023/08/21 02:34:43;;;;;;;0.30;0.30;;;29.60;60.50;;;30.32;44.05;95527.31;5012867;28;20198;-32
2023/08/21 02:37:10;;;;;;;0.30;0.30;;;29.60;60.50;;;30.33;44.25;95523.50;5012040;28;20631;-33
2023/08/21 02:39:37;;;;;;;0.30;0.30;;;29.60;60.50;;;30.31;44.08;95523.81;5012959;28;20540;-32
2023/08/21 02:42:04;;;;;;;0.30;0.30;;;29.60;60.50;;;30.31;44.48;95520.28;5011774;28;20228;-31
2023/08/21 02:44:31;;;;;;;0.30;0.30;;;29.60;60.60;;;30.28;44.57;95516.28;5028341;28;20552;-32
2023/08/21 02:46:58;;;;;;;0.20;0.20;;;29.60;60.50;;;30.26;44.58;95513.09;5013164;28;20268;-31
2023/08/21 02:49:25;;;;;;;0.30;0.30;;;29.60;60.60;;;30.28;44.82;95515.50;5012385;28;20232;-33
2023/08/21 02:51:52;;;;;;;0.30;0.30;;;29.60;60.60;;;30.26;44.67;95521.22;5011545;28;20319;-31
2023/08/21 02:54:19;;;;;;;0.30;0.30;;;29.60;60.60;;;30.25;44.72;95513.38;5012512;28;20684;-31
2023/08/21 02:56:48;;;;;;;0.30;0.30;;;29.60;60.60;;;30.25;44.33;95519.59;5012479;28;20194;-31
2023/08/21 02:59:15;;;;;;;0.20;0.20;;;29.60;60.60;;;30.25;44.49;95521.50;5012486;28;20219;-30
2023/08/21 03:01:42;;;;;;;0.20;0.20;;;29.50;60.50;;;30.22;44.82;95522.91;5011466;28;20606;-30
2023/08/21 03:04:09;;;;;;;0.30;0.30;;;29.50;60.50;;;30.22;45.01;95522.91;5012402;28;20202;-32
2023/08/21 03:06:36;;;;;;;0.28;0.28;;;29.60;60.60;;;30.21;44.41;95520.50;5011392;28;20635;-30
2023/08/21 03:09:03;;;;;;;0.30;0.30;;;29.50;60.60;;;30.20;44.34;95519.72;5012775;28;20203;-32
2023/08/21 03:11:30;;;;;;;0.30;0.30;;;29.50;60.60;;;30.19;44.63;95516.19;5012029;28;20214;-31
2023/08/21 03:13:57;;;;;;;0.40;0.40;;;29.50;60.60;;;30.18;44.22;95516.50;5012194;28;20242;-32
2023/08/21 03:16:24;;;;;;;0.30;0.30;;;29.50;60.60;;;30.17;45.06;95510.28;5011250;28;20236;-30
2023/08/21 03:18:57;;;;;;;0.30;0.30;;;29.50;60.70;;;30.16;44.42;95506.00;5011214;28;20205;-32
2023/08/21 03:21:26;;;;;;;0.30;0.30;;;29.50;60.70;;;30.16;44.29;95507.88;5011466;28;20539;-30
2023/08/21 03:23:59;;;;;;;0.30;0.30;;;29.50;60.60;;;30.15;44.74;95503.56;5014955;28;20206;-32
2023/08/21 03:26:30;;;;;;;0.30;0.30;;;29.50;60.70;;;30.13;45.11;95503.09;5014770;28;20200;-31
2023/08/21 03:28:57;;;;;;;0.30;0.30;;;29.50;60.60;;;30.13;44.94;95503.88;5016160;28;20193;-30
2023/08/21 03:31:24;;;;;;;0.20;0.20;;;29.50;60.70;;;30.13;44.72;95501.19;5014452;28;20694;-32
2023/08/21 03:33:51;;;;;;;0.20;0.20;;;29.50;61.60;;;30.12;45.09;95504.19;5015783;28;20199;-30
2023/08/21 03:36:30;;;;;;;0.30;0.30;;;29.40;60.60;;;30.11;44.92;95499.88;5014572;28;20198;-31
2023/08/21 03:38:59;;;;;;;0.20;0.20;;;29.50;60.70;;;30.10;44.85;95499.09;5014851;28;20226;-30
2023/08/21 03:41:27;;;;;;;0.30;0.30;;;29.40;60.60;;;30.08;45.10;95501.28;5014360;28;20208;-32
2023/08/21 03:43:54;;;;;;;0.28;0.28;;;29.40;60.70;;;30.09;45.16;95505.59;5015359;28;20254;-33
2023/08/21 03:46:21;;;;;;;0.20;0.20;;;29.40;60.70;;;30.07;44.79;95502.38;5014455;28;20204;-30
2023/08/21 03:48:50;;;;;;;0.50;0.50;;;29.40;60.60;;;30.08;45.13;95506.69;5014410;28;20198;-31
2023/08/21 03:51:17;;;;;;;0.25;0.25;;;29.40;60.70;;;30.06;45.03;95503.50;5014646;28;20315;-30
2023/08/21 03:53:44;;;;;;;0.20;0.20;;;29.40;60.60;;;30.05;45.04;95511.91;5014296;28;20296;-31
2023/08/21 03:56:11;;;;;;;0.40;0.40;;;29.40;60.60;;;30.05;44.57;95507.28;5014264;28;20231;-31
2023/08/21 03:58:38;;;;;;;0.30;0.30;;;29.40;60.70;;;30.04;45.07;95508.38;5015190;28;20645;-31
2023/08/21 04:01:06;;;;;;;0.40;0.40;;;29.40;60.70;;;30.03;45.09;95512.22;5014092;28;20208;-30
2023/08/21 04:03:33;;;;;;;0.20;0.20;;;29.40;60.70;;;30.02;45.20;95507.91;5014169;28;20209;-31
2023/08/21 04:06:02;;;;;;;0.35;0.35;;;29.40;60.70;;;30.00;44.72;95502.81;5014105;28;20544;-32
2023/08/21 04:08:29;;;;;;;0.30;0.30;;;29.40;60.70;;;30.01;45.10;95515.22;5030573;28;20224;-30
2023/08/21 04:10:59;;;;;;;0.30;0.30;;;29.40;60.70;;;30.00;45.26;95510.94;5013792;28;20652;-30
2023/08/21 04:13:28;;;;;;;0.30;0.30;;;29.40;60.70;;;30.00;45.23;95513.63;5015298;28;20190;-31
2023/08/21 04:15:56;;;;;;;0.30;0.30;;;29.40;60.70;;;30.00;44.94;95510.09;5014986;28;20228;-30
2023/08/21 04:18:24;;;;;;;0.40;0.40;;;29.30;60.70;;;29.99;44.83;95513.91;5014861;28;20192;-30
2023/08/21 04:21:06;;;;;;;0.40;0.40;;;29.40;60.80;;;29.96;45.12;95512.63;5015012;28;20188;-30
2023/08/21 04:23:33;;;;;;;0.40;0.40;;;29.30;60.80;;;29.96;45.28;95515.31;5013892;28;20211;-31
2023/08/21 04:26:04;;;;;;;0.20;0.20;;;29.30;60.80;;;29.93;44.87;95504.31;5014739;28;20195;-31
2023/08/21 04:28:32;;;;;;;0.40;0.40;;;29.30;60.80;;;29.95;44.67;95519.13;5014799;28;20200;-30
2023/08/21 04:31:05;;;;;;;0.30;0.30;;;29.30;60.80;;;29.94;44.71;95512.09;5013485;28;20228;-32
2023/08/21 04:33:33;;;;;;;0.40;0.40;;;29.30;60.80;;;29.93;44.99;95515.94;5014258;28;20256;-30
2023/08/21 04:36:00;;;;;;;0.20;0.20;;;29.30;60.80;;;29.91;44.84;95518.13;5014844;28;20211;-31
2023/08/21 04:38:28;;;;;;;0.25;0.25;;;29.30;60.80;;;29.92;45.21;95521.63;5030162;28;20269;-30
2023/08/21 04:40:55;;;;;;;0.30;0.30;;;29.30;60.90;;;29.92;44.99;95525.16;5013501;28;20200;-39
2023/08/21 04:43:23;;;;;;;0.30;0.30;;;29.30;60.90;;;29.91;45.30;95520.84;5014003;28;20224;-34
2023/08/21 04:45:55;;;;;;;0.20;0.20;;;29.30;60.90;;;29.90;45.24;95515.72;4997353;28;20235;-31
2023/08/21 04:48:24;;;;;;;0.20;0.20;;;29.30;61.00;;;29.90;45.46;95519.22;5013604;28;20198;-33
2023/08/21 04:50:51;;;;;;;0.22;0.22;;;29.30;60.90;;;29.90;44.91;95519.22;5013276;28;20213;-32
2023/08/21 04:53:18;;;;;;;0.30;0.30;;;29.30;60.90;;;29.90;44.92;95515.72;5014227;28;20212;-31
2023/08/21 04:55:46;;;;;;;0.30;0.30;;;29.30;60.90;;;29.87;45.24;95512.50;5013643;28;20204;-33
2023/08/21 04:58:14;;;;;;;0.30;0.30;;;29.30;61.00;;;29.87;45.00;95517.91;4997423;28;20522;-32
2023/08/21 05:00:44;;;;;;;0.20;0.20;;;29.30;60.90;;;29.87;44.97;95523.31;5013322;28;20197;-32
2023/08/21 05:03:12;;;;;;;0.30;0.30;;;29.30;61.00;;;29.87;45.55;95523.31;5015023;28;20201;-33
2023/08/21 05:05:42;;;;;;;0.30;0.30;;;29.30;61.00;;;29.86;45.64;95523.63;4997669;28;20252;-31
2023/08/21 05:08:09;;;;;;;0.40;0.40;;;29.30;61.00;;;29.86;45.17;95521.69;5013183;28;20320;-32
2023/08/21 05:10:36;;;;;;;0.20;0.20;;;29.30;61.00;;;29.86;45.56;95526.31;5029384;28;20664;-31
2023/08/21 05:13:04;;;;;;;0.30;0.30;;;29.30;61.00;;;29.86;44.97;95527.13;5013094;28;20207;-32
2023/08/21 05:15:31;;;;;;;0.30;0.30;;;29.30;61.10;;;29.86;45.35;95524.41;5013076;28;20743;-31
2023/08/21 05:17:59;;;;;;;0.22;0.22;;;29.30;61.10;;;29.86;45.12;95526.31;5013991;28;20194;-33
2023/08/21 05:20:27;;;;;;;0.50;0.50;;;29.30;61.10;;;29.86;45.05;95523.63;5012856;28;20206;-33
2023/08/21 05:22:54;;;;;;;0.30;0.30;;;29.30;61.10;;;29.86;45.45;95529.03;5014181;28;20250;-31
2023/08/21 05:25:21;;;;;;;0.20;0.20;;;29.30;61.10;;;29.86;45.19;95531.72;5012966;28;20208;-31
2023/08/21 05:27:48;;;;;;;0.20;0.20;;;29.30;62.10;;;29.87;45.56;95536.03;5013136;28;20203;-34
2023/08/21 05:30:16;;;;;;;0.30;0.30;;;29.30;61.10;;;29.88;45.10;95534.91;4996999;28;20302;-31
2023/08/21 05:32:43;;;;;;;0.25;0.25;;;29.30;61.10;;;29.87;45.51;95536.84;5013679;28;20212;-32
2023/08/21 05:35:11;;;;;;;0.30;0.30;;;29.30;61.20;;;29.88;45.73;95534.91;5012767;28;20644;-33
2023/08/21 05:37:38;;;;;;;0.20;0.20;;;29.30;61.10;;;29.87;45.24;95539.53;5012740;28;20669;-30
2023/08/21 05:40:07;;;;;;;0.25;0.25;;;29.30;61.10;;;29.90;45.76;95540.03;5012728;28;20196;-32
2023/08/21 05:42:35;;;;;;;0.30;0.30;;;29.30;61.20;;;29.89;45.41;95543.84;5029021;28;20212;-31
2023/08/21 05:45:03;;;;;;;0.20;0.20;;;29.30;61.20;;;29.88;45.33;95532.22;5012355;28;20205;-31
2023/08/21 05:47:32;;;;;;;0.32;0.32;;;29.30;61.20;;;29.88;45.62;95537.63;4996147;28;20208;-33
2023/08/21 05:49:59;;;;;;;0.30;0.30;;;29.30;61.20;;;29.88;45.14;95534.91;5012573;28;20225;-31
2023/08/21 05:52:27;;;;;;;0.30;0.30;;;29.30;61.20;;;29.89;45.60;95535.72;5012406;28;20743;-31
2023/08/21 05:54:54;;;;;;;0.30;0.30;;;29.30;61.20;;;29.90;45.73;95530.03;5013784;28;20580;-31
2023/08/21 05:57:21;;;;;;;0.30;0.30;;;29.30;61.30;;;29.89;45.84;95539.22;5012444;28;20254;-30
2023/08/21 05:59:48;;;;;;;0.20;0.20;;;29.30;61.30;;;29.91;45.36;95536.28;5013346;28;20296;-30
2023/08/21 06:02:15;;;;;;;0.28;0.28;;;29.30;61.30;;;29.89;45.88;95531.13;5012203;28;20237;-31
2023/08/21 06:04:43;;;;;;;0.30;0.30;;;29.30;61.40;;;29.91;45.27;95538.97;5013294;28;20223;-31
2023/08/21 06:07:10;;;;;;;0.40;0.40;;;29.30;61.30;;;29.90;45.24;95538.16;5012298;28;20204;-32
2023/08/21 06:09:37;;;;;;;0.30;0.30;;;29.30;61.30;;;29.91;45.24;95539.78;4996859;28;20199;-31
2023/08/21 06:12:08;;;;;;;0.30;0.30;;;29.30;61.40;;;29.92;45.33;95537.84;4996337;28;20220;-31
2023/08/21 06:14:37;;;;;;;0.30;0.30;;;29.30;61.30;;;29.93;46.02;95539.47;5012177;28;20196;-31
2023/08/21 06:17:05;;;;;;;0.30;0.30;;;29.30;61.30;;;29.93;45.88;95542.16;5012003;28;20702;-33
2023/08/21 06:19:32;;;;;;;0.30;0.30;;;29.30;61.30;;;29.93;45.94;95551.09;5013025;28;20185;-34
2023/08/21 06:22:00;;;;;;;0.20;0.20;;;29.30;61.40;;;29.94;46.05;95543.78;5013117;28;20205;-30
2023/08/21 06:24:27;;;;;;;0.30;0.30;;;29.40;61.40;;;29.94;45.50;95549.97;5012928;28;20201;-28
2023/08/21 06:26:59;;;;;;;0.30;0.30;;;29.40;61.40;;;29.96;45.82;95538.88;4981484;28;20209;-29
2023/08/21 06:29:27;;;;;;;0.22;0.22;;;29.40;61.40;;;29.96;45.69;95550.47;5011955;28;20591;-28
2023/08/21 06:31:54;;;;;;;0.32;0.32;;;29.30;61.40;;;29.96;45.92;95542.38;5011640;28;20250;-28
2023/08/21 06:34:23;;;;;;;0.30;0.30;;;29.40;61.40;;;29.97;45.51;95548.59;5012100;28;20269;-29
2023/08/21 06:36:50;;;;;;;0.30;0.30;;;29.40;61.40;;;29.98;45.59;95545.59;5012452;28;20193;-31
2023/08/21 06:39:17;;;;;;;0.30;0.30;;;29.40;61.50;;;29.99;46.14;95549.91;5011861;28;20200;-34
2023/08/21 06:41:44;;;;;;;0.30;0.30;;;29.40;61.50;;;29.99;45.97;95546.38;5012864;28;20210;-32
2023/08/21 06:44:17;;;;;;;0.30;0.30;;;29.40;61.50;;;30.00;46.05;95542.56;5012686;28;20196;-32
2023/08/21 06:46:44;;;;;;;0.40;0.40;;;29.40;61.50;;;30.00;46.16;95537.97;5012149;28;20291;-30
2023/08/21 06:49:11;;;;;;;0.30;0.30;;;29.40;61.50;;;30.00;45.59;95543.38;5012854;28;20207;-31
2023/08/21 06:51:38;;;;;;;0.30;0.30;;;29.40;61.50;;;30.03;45.51;95542.78;5011527;28;20244;-31
2023/08/21 06:54:06;;;;;;;0.30;0.30;;;29.40;62.50;;;30.03;46.02;95541.97;5012542;28;20636;-32
2023/08/21 06:56:33;;;;;;;0.30;0.30;;;29.40;61.60;;;30.04;46.19;95543.56;5012381;28;20199;-31
2023/08/21 06:59:00;;;;;;;0.20;0.20;;;29.40;61.50;;;30.05;46.17;95539.75;5012091;28;20185;-31
2023/08/21 07:01:28;;;;;;;0.32;0.32;;;29.40;61.50;;;30.06;45.54;95544.06;5012297;28;20624;-30
2023/08/21 07:03:55;;;;;;;0.30;0.30;;;29.40;61.60;;;30.06;45.62;95538.66;5012689;28;20197;-32
2023/08/21 07:06:22;;;;;;;0.30;0.30;;;29.40;62.50;;;30.07;46.39;95542.19;5009378;28;20228;-30
2023/08/21 07:08:49;;;;;;;0.30;0.30;;;29.50;61.70;;;30.09;46.16;95537.25;4992785;28;20224;-32
2023/08/21 07:11:17;;;;;;;0.30;0.30;;;29.40;61.60;;;30.09;45.68;95545.38;4993974;28;20584;-43
2023/08/21 07:13:45;;;;;;;0.30;0.30;;;29.50;61.60;;;30.10;45.58;95545.09;4993003;28;20194;-30
2023/08/21 07:16:12;;;;;;;0.30;0.30;;;29.50;61.70;;;30.11;45.61;95548.56;5008809;28;20236;-30
2023/08/21 07:18:40;;;;;;;0.30;0.30;;;29.50;61.70;;;30.11;46.21;95548.56;4993464;28;20205;-31
2023/08/21 07:21:07;;;;;;;0.20;0.20;;;29.50;61.70;;;30.12;45.70;95544.78;4993091;28;20212;-32
2023/08/21 07:23:52;;;;;;;0.20;0.20;;;29.50;61.70;;;30.13;46.33;95549.09;4992949;28;20276;-31
2023/08/21 07:26:19;;;;;;;0.20;0.20;;;29.50;61.60;;;30.13;46.15;95551.78;4992862;28;20304;-31
2023/08/21 07:28:46;;;;;;;0.30;0.30;;;29.50;61.70;;;30.14;46.13;95548.78;4992610;28;20619;-31
2023/08/21 07:31:14;;;;;;;0.30;0.30;;;29.50;61.70;;;30.15;46.06;95550.38;4992858;28;20198;-32
2023/08/21 07:33:41;;;;;;;0.30;0.30;;;29.50;61.70;;;30.17;45.91;95547.38;4992545;28;20190;-30
2023/08/21 07:36:08;;;;;;;0.30;0.30;;;29.60;61.70;;;30.18;46.21;95549.78;5008293;28;20202;-30
2023/08/21 07:38:35;;;;;;;0.30;0.30;;;29.60;61.70;;;30.19;45.69;95550.59;4992469;28;20229;-31
2023/08/21 07:41:10;;;;;;;0.40;0.40;;;29.60;61.70;;;30.21;45.87;95544.88;4992420;28;20238;-30
2023/08/21 07:43:39;;;;;;;0.30;0.30;;;29.60;61.70;;;30.22;46.14;95551.88;4992315;28;20235;-33
2023/08/21 07:46:13;;;;;;;0.40;0.40;;;29.60;61.80;;;30.23;45.74;95545.38;4992632;28;20221;-31
2023/08/21 07:48:40;;;;;;;0.22;0.22;;;29.60;61.70;;;30.24;46.26;95546.97;5007913;28;20194;-30
2023/08/21 07:51:08;;;;;;;0.30;0.30;;;29.60;61.70;;;30.24;46.33;95542.34;4992296;28;20205;-32
2023/08/21 07:53:35;;;;;;;0.30;0.30;;;29.60;61.70;;;30.26;46.32;95542.88;5007449;28;20281;-31
2023/08/21 07:56:03;;;;;;;0.30;0.30;;;29.60;61.80;;;30.28;46.21;95542.56;4992258;28;20198;-31
2023/08/21 07:58:31;;;;;;;0.30;0.30;;;29.60;61.80;;;30.28;45.97;95548.75;4991925;28;20636;-32
2023/08/21 08:00:59;;;;;;;0.30;0.30;;;29.60;61.70;;;30.30;46.06;95549.25;5007756;28;20208;-32
2023/08/21 08:03:27;;;;;;;0.30;0.30;;;29.60;61.80;;;30.31;45.85;95550.06;4991967;28;20205;-30
2023/08/21 08:05:54;;;;;;;0.30;0.30;;;29.60;61.70;;;30.32;46.19;95548.94;5007839;28;20711;-30
2023/08/21 08:08:22;;;;;;;0.30;0.30;;;29.70;61.80;;;30.34;46.12;95554.88;4992114;28;20203;-30
2023/08/21 08:10:49;;;;;;;0.20;0.20;;;29.60;61.70;;;30.34;46.28;95552.94;4995360;28;20193;-31
2023/08/21 08:13:17;;;;;;;0.20;0.20;;;29.60;61.80;;;30.35;45.76;95551.84;4995166;28;20309;-30
2023/08/21 08:15:44;;;;;;;0.40;0.40;;;29.70;61.80;;;30.38;46.00;95555.06;4995199;28;20696;-30
2023/08/21 08:18:13;;;;;;;0.20;0.20;;;29.70;61.80;;;30.37;45.93;95554.28;4995865;28;20200;-31
2023/08/21 08:20:40;;;;;;;0.30;0.30;;;29.70;61.70;;;30.39;45.99;95551.25;4995522;28;20198;-30
2023/08/21 08:23:07;;;;;;;0.30;0.30;;;29.70;61.80;;;30.40;45.83;95553.66;4995199;28;20648;-31
2023/08/21 08:25:35;;;;;;;0.25;0.25;;;29.70;61.80;;;30.41;46.34;95554.47;4995486;28;20222;-31
2023/08/21 08:28:02;;;;;;;0.30;0.30;;;29.70;61.80;;;30.43;46.44;95549.53;4995508;28;20201;-30
2023/08/21 08:30:29;;;;;;;0.30;0.30;;;29.70;61.80;;;30.44;46.30;95554.63;4995413;28;20293;-32
2023/08/21 08:32:56;;;;;;;0.20;0.20;;;29.80;61.80;;;30.47;46.41;95553.25;5010372;28;20207;-31
2023/08/21 08:35:24;;;;;;;0.20;0.20;;;29.80;61.80;;;30.47;46.16;95555.97;4995589;28;20198;-30
2023/08/21 08:37:51;;;;;;;0.30;0.30;;;29.80;61.80;;;30.48;46.27;95552.13;5079700;28;20224;-30
2023/08/21 08:40:18;;;;;;;0.20;0.20;;;29.80;61.80;;;30.49;46.39;95548.31;4995352;28;20244;-34
2023/08/21 08:42:45;;;;;;;0.30;0.30;;;29.80;61.80;;;30.52;45.62;95555.06;4977776;28;20209;-32
2023/08/21 08:45:14;;;;;;;0.20;0.20;;;29.80;61.80;;;30.52;46.21;95549.66;5010296;28;20209;-31
2023/08/21 08:47:41;;;;;;;0.30;0.30;;;29.80;61.80;;;30.54;45.73;95564.50;4995124;28;20206;-33
2023/08/21 08:50:09;;;;;;;0.30;0.30;;;29.80;61.80;;;30.54;46.21;95556.38;4994857;28;20202;-32
2023/08/21 08:52:39;;;;;;;0.38;0.38;;;29.80;61.80;;;30.56;45.62;95556.88;5010291;28;20320;-31
2023/08/21 08:55:08;;;;;;;0.20;0.20;;;29.90;61.90;;;30.57;46.17;95554.97;4995106;28;20175;-30
2023/08/21 08:57:35;;;;;;;0.20;0.20;;;29.90;61.80;;;30.59;46.18;95561.69;4994709;28;20245;-31
2023/08/21 09:00:04;;;;;;;0.30;0.30;;;29.90;61.90;;;30.60;46.27;95560.59;4994707;28;20196;-31
2023/08/21 09:02:32;;;;;;;0.20;0.20;;;29.90;61.80;;;30.62;45.57;95555.63;4994702;28;20254;-32
2023/08/21 09:04:59;;;;;;;0.30;0.30;;;29.90;61.80;;;30.62;45.96;95552.94;4994315;28;20520;-32
2023/08/21 09:07:26;;;;;;;0.40;0.40;;;29.90;61.90;;;30.64;45.67;95544.53;4994582;28;20205;-32
2023/08/21 09:09:54;;;;;;;0.28;0.28;;;29.90;61.80;;;30.65;45.62;95548.81;4994554;28;20704;-30
2023/08/21 09:12:21;;;;;;;0.30;0.30;;;30.00;61.80;;;30.66;46.21;95545.81;4994304;28;20223;-31
2023/08/21 09:14:48;;;;;;;0.22;0.22;;;29.90;61.80;;;30.68;45.49;95547.44;4995064;28;20224;-33
2023/08/21 09:17:16;;;;;;;0.30;0.30;;;30.00;61.80;;;30.69;46.18;95547.13;4994590;28;20234;-30
2023/08/21 09:19:44;;;;;;;0.30;0.30;;;30.00;61.80;;;30.72;45.77;95537.56;4994423;28;20550;-30
2023/08/21 09:22:17;;;;;;;0.30;0.30;;;30.00;61.80;;;30.73;45.95;95539.19;4994462;28;20255;-33
2023/08/21 09:25:08;;;;;;;0.40;0.40;;;30.00;61.80;;;30.73;45.99;95539.19;5009819;28;20187;-31
2023/08/21 09:27:39;;;;;;;0.30;0.30;;;30.00;61.80;;;30.73;45.51;95539.19;4994550;28;20193;-31
2023/08/21 09:30:15;;;;;;;0.30;0.30;;;30.00;61.80;;;30.75;46.07;95528.81;4994294;28;20194;-31
2023/08/21 09:33:04;;;;;;;0.40;0.40;;;30.00;61.80;;;30.75;45.77;95534.25;4994082;28;20758;-30
2023/08/21 09:35:33;;;;;;;0.30;0.30;;;30.00;61.70;;;30.77;45.83;95545.56;4994251;28;20201;-33
2023/08/21 09:38:00;;;;;;;0.30;0.30;;;30.00;61.70;;;30.79;45.47;95535.25;5009487;28;20232;-32
2023/08/21 09:40:28;;;;;;;0.40;0.40;;;30.00;61.70;;;30.81;46.08;95539.25;4994350;28;20201;-30
2023/08/21 09:42:57;;;;;;;0.30;0.30;;;30.10;61.80;;;30.82;45.53;95529.19;4993953;28;20229;-32
2023/08/21 09:45:25;;;;;;;0.32;0.32;;;30.10;61.70;;;30.85;45.71;95533.19;5009708;28;20260;-31
2023/08/21 09:47:53;;;;;;;0.30;0.30;;;30.10;61.80;;;30.86;45.47;95530.22;4993978;28;20190;-31
2023/08/21 09:50:22;;;;;;;0.30;0.30;;;30.10;61.70;;;30.87;45.79;95523.69;4977026;28;20198;-30
2023/08/21 09:52:49;;;;;;;0.30;0.30;;;30.10;61.70;;;30.88;45.71;95522.56;4993887;28;20688;-31
2023/08/21 09:55:18;;;;;;;0.20;0.20;;;30.10;61.70;;;30.91;45.64;95519.25;5009425;28;20191;-30
2023/08/21 09:57:45;;;;;;;0.25;0.25;;;30.10;61.70;;;30.92;45.36;95520.84;4994087;28;20261;-32
2023/08/21 10:00:15;;;;;;;0.30;0.30;;;30.20;61.80;;;30.94;45.73;95518.63;4993795;28;20252;-32
2023/08/21 10:02:47;;;;;;;0.30;0.30;;;30.20;61.80;;;30.95;45.90;95514.00;4993967;28;20294;-30
2023/08/21 10:05:19;;;;;;;0.40;0.40;;;30.20;61.70;;;30.97;45.82;95514.53;5009083;28;20314;-31
2023/08/21 10:07:51;;;;;;;0.30;0.30;;;30.20;61.60;;;30.98;45.54;95514.19;4993913;28;20229;-32
2023/08/21 10:10:18;;;;;;;0.40;0.40;;;30.20;61.60;;;31.00;45.83;95508.47;4993967;28;20183;-34
2023/08/21 10:12:46;;;;;;;0.30;0.30;;;30.20;61.70;;;31.02;45.08;95508.97;4993565;28;20588;-32
2023/08/21 10:15:13;;;;;;;0.20;0.20;;;30.20;61.50;;;31.06;45.76;95506.44;4992775;28;20197;-32
2023/08/21 10:17:43;;;;;;;0.30;0.30;;;30.20;61.50;;;31.05;45.74;95502.91;4993246;28;20235;-32
2023/08/21 10:20:11;;;;;;;0.30;0.30;;;30.20;61.50;;;31.08;45.76;95509.66;4993522;28;20204;-32
2023/08/21 10:22:51;;;;;;;0.30;0.30;;;30.30;61.50;;;31.10;45.07;95510.16;5008641;28;20202;-30
2023/08/21 10:25:28;;;;;;;0.28;0.28;;;30.30;61.40;;;31.11;45.61;95511.75;4993754;28;20191;-31